Time;durP1;ratioP1;P1;durP2;ratioP2;P2;SDS_P1;SDS_P2;PMS_P1;PMS_P2;Temp;Humidity;BMP_temperature;BMP_pressure;BME280_temperature;BME280_humidity;BME280_pressure;Samples;Min_cycle;Max_cycle;Signal;HPM_P1;HPM_P2
2020/12/17 00:01:56;;;;;;;13.32;10.57;;;10.00;99.90;;;;;;4975829;28;20086;-77
2020/12/17 00:04:23;;;;;;;15.00;11.10;;;10.00;99.90;;;;;;4979599;28;20042;-77
2020/12/17 00:06:50;;;;;;;15.98;10.75;;;10.00;99.90;;;;;;4973886;28;20173;-77
2020/12/17 00:09:16;;;;;;;13.98;10.93;;;10.10;99.90;;;;;;4974265;28;20077;-78
2020/12/17 00:11:42;;;;;;;12.90;10.55;;;10.10;99.90;;;;;;4975927;28;20149;-78
2020/12/17 00:14:10;;;;;;;13.85;10.93;;;10.10;99.90;;;;;;4977421;28;20121;-78
2020/12/17 00:16:37;;;;;;;14.90;11.38;;;10.10;99.90;;;;;;4976673;28;20137;-78
2020/12/17 00:19:04;;;;;;;16.35;11.32;;;10.10;99.90;;;;;;4973844;28;20070;-77
2020/12/17 00:21:30;;;;;;;16.42;11.95;;;10.10;99.90;;;;;;4973932;28;20134;-77
2020/12/17 00:23:57;;;;;;;15.32;11.07;;;10.10;99.90;;;;;;4972976;28;20138;-77
2020/12/17 00:26:25;;;;;;;15.80;11.02;;;10.10;99.90;;;;;;4972664;28;20042;-77
2020/12/17 00:28:52;;;;;;;14.18;10.70;;;10.10;99.90;;;;;;4973776;28;20154;-77
2020/12/17 00:31:19;;;;;;;13.93;11.18;;;10.10;99.90;;;;;;4973802;28;20055;-77
2020/12/17 00:33:46;;;;;;;14.65;11.40;;;10.00;99.90;;;;;;4972528;28;20136;-77
2020/12/17 00:36:17;;;;;;;16.38;11.23;;;10.00;99.90;;;;;;4973593;28;20129;-78
2020/12/17 00:38:43;;;;;;;14.32;10.45;;;10.00;99.90;;;;;;4970729;28;20463;-78
2020/12/17 00:41:12;;;;;;;13.63;10.50;;;10.00;99.90;;;;;;4976925;28;20134;-77
2020/12/17 00:43:39;;;;;;;14.07;10.95;;;10.00;99.90;;;;;;4976579;28;20055;-78
2020/12/17 00:46:05;;;;;;;17.48;11.95;;;10.10;99.90;;;;;;4976178;28;20137;-78
2020/12/17 00:48:33;;;;;;;15.88;11.38;;;10.10;99.90;;;;;;4975978;28;20139;-78
2020/12/17 00:50:59;;;;;;;16.50;12.32;;;10.10;99.90;;;;;;4975669;28;20134;-77
2020/12/17 00:53:26;;;;;;;16.83;11.48;;;10.10;99.90;;;;;;4973141;28;20126;-78
2020/12/17 00:55:52;;;;;;;17.33;11.63;;;10.10;99.90;;;;;;4974649;28;20102;-77
2020/12/17 00:58:19;;;;;;;16.13;11.65;;;10.00;99.90;;;;;;4975990;28;20109;-77
2020/12/17 01:00:45;;;;;;;19.17;11.32;;;10.00;99.90;;;;;;4975260;28;20133;-78
2020/12/17 01:03:12;;;;;;;17.33;11.73;;;10.00;99.90;;;;;;4975386;28;20501;-78
2020/12/17 01:05:39;;;;;;;16.33;12.20;;;10.00;99.90;;;;;;4974664;28;20050;-78
2020/12/17 01:08:05;;;;;;;14.10;11.55;;;10.00;99.90;;;;;;4975155;28;20133;-78
2020/12/17 01:10:32;;;;;;;19.38;12.02;;;10.00;99.90;;;;;;4974787;28;20153;-78
2020/12/17 01:12:58;;;;;;;16.00;10.95;;;10.00;99.90;;;;;;4975202;28;20141;-78
2020/12/17 01:15:25;;;;;;;14.90;11.07;;;10.00;99.90;;;;;;4977325;28;20129;-79
2020/12/17 01:17:52;;;;;;;14.77;10.20;;;9.90;99.90;;;;;;4976563;28;20133;-78
2020/12/17 01:20:18;;;;;;;12.25;9.95;;;10.00;99.90;;;;;;4976176;28;20149;-78
2020/12/17 01:22:46;;;;;;;13.65;10.57;;;10.00;99.90;;;;;;4975835;28;20051;-78
2020/12/17 01:25:12;;;;;;;13.50;10.68;;;10.10;99.90;;;;;;4976443;28;20054;-78
2020/12/17 01:27:38;;;;;;;17.67;10.70;;;10.10;99.90;;;;;;4975515;28;20139;-79
2020/12/17 01:30:05;;;;;;;16.17;10.90;;;10.10;99.90;;;;;;4976751;28;20129;-79
2020/12/17 01:32:31;;;;;;;14.63;11.27;;;10.20;99.90;;;;;;4975961;28;20130;-79
2020/12/17 01:34:58;;;;;;;16.95;11.63;;;10.20;99.90;;;;;;4976373;28;20186;-78
2020/12/17 01:37:24;;;;;;;17.33;11.00;;;10.20;99.90;;;;;;4976221;28;20138;-78
2020/12/17 01:39:51;;;;;;;16.63;10.98;;;10.20;99.90;;;;;;4975753;28;20161;-78
2020/12/17 01:42:18;;;;;;;13.80;11.40;;;10.20;99.90;;;;;;4976028;28;20318;-78
2020/12/17 01:44:46;;;;;;;14.52;11.32;;;10.30;99.90;;;;;;4976328;28;20129;-78
2020/12/17 01:47:12;;;;;;;15.50;11.70;;;10.30;99.90;;;;;;4976081;28;20051;-78
2020/12/17 01:49:40;;;;;;;15.77;11.38;;;10.20;99.90;;;;;;4976258;28;20141;-78
2020/12/17 01:52:06;;;;;;;16.50;11.32;;;10.10;99.90;;;;;;4975755;28;20434;-78
2020/12/17 01:54:33;;;;;;;15.00;11.07;;;10.10;99.90;;;;;;4975895;28;20133;-78
2020/12/17 01:57:02;;;;;;;15.07;11.30;;;10.00;99.90;;;;;;4974183;28;20051;-78
2020/12/17 01:59:34;;;;;;;13.82;10.95;;;10.00;99.90;;;;;;4974640;28;20137;-77
2020/12/17 02:02:04;;;;;;;18.48;11.18;;;10.00;99.90;;;;;;4974991;28;20097;-78
2020/12/17 02:04:30;;;;;;;16.38;10.43;;;10.10;99.90;;;;;;4975829;28;20054;-78
2020/12/17 02:06:57;;;;;;;14.98;10.65;;;10.00;99.90;;;;;;4975591;28;20142;-78
2020/12/17 02:09:23;;;;;;;14.98;11.13;;;10.00;99.90;;;;;;4975351;28;20106;-79
2020/12/17 02:11:54;;;;;;;16.15;11.95;;;9.90;99.90;;;;;;4976083;28;20578;-79
2020/12/17 02:14:21;;;;;;;16.63;11.43;;;9.90;99.90;;;;;;4978007;28;20125;-79
2020/12/17 02:16:48;;;;;;;13.55;11.13;;;9.90;99.90;;;;;;4978902;28;20126;-79
2020/12/17 02:19:15;;;;;;;15.07;11.18;;;9.90;99.90;;;;;;4979739;28;20110;-79
2020/12/17 02:21:42;;;;;;;15.57;11.13;;;9.90;99.90;;;;;;4977647;28;20093;-78
2020/12/17 02:24:08;;;;;;;13.93;10.65;;;9.90;99.90;;;;;;4976659;28;20132;-78
2020/12/17 02:26:36;;;;;;;13.30;10.13;;;9.80;99.90;;;;;;4977211;28;20472;-78
2020/12/17 02:29:03;;;;;;;13.48;10.35;;;9.90;99.90;;;;;;4976466;28;20129;-78
2020/12/17 02:31:30;;;;;;;12.82;9.50;;;9.90;99.90;;;;;;4975547;28;20479;-78
2020/12/17 02:33:57;;;;;;;13.13;9.95;;;9.90;99.90;;;;;;4975633;28;20078;-79
2020/12/17 02:36:23;;;;;;;14.10;10.32;;;9.90;99.90;;;;;;4974750;28;20055;-78
2020/12/17 02:38:50;;;;;;;12.05;9.75;;;9.80;99.90;;;;;;4976685;28;20137;-78
2020/12/17 02:41:16;;;;;;;15.75;10.43;;;9.80;99.90;;;;;;4977692;28;20559;-78
2020/12/17 02:43:43;;;;;;;13.82;9.65;;;9.80;99.90;;;;;;4976441;28;20129;-77
2020/12/17 02:46:10;;;;;;;14.63;10.27;;;9.80;99.90;;;;;;4976389;28;20085;-77
2020/12/17 02:48:36;;;;;;;15.63;9.88;;;9.90;99.90;;;;;;4979909;28;20133;-79
2020/12/17 02:51:02;;;;;;;12.82;9.82;;;9.90;99.90;;;;;;4981052;28;20141;-78
2020/12/17 02:53:29;;;;;;;13.45;10.05;;;9.90;99.90;;;;;;4982101;28;20082;-78
2020/12/17 02:55:55;;;;;;;13.85;10.32;;;10.00;99.90;;;;;;4981951;28;20515;-79
2020/12/17 02:58:22;;;;;;;13.00;9.82;;;10.00;99.90;;;;;;4982360;28;20098;-79
2020/12/17 03:00:49;;;;;;;12.32;9.50;;;10.00;99.90;;;;;;4984107;28;20090;-79
2020/12/17 03:03:15;;;;;;;13.70;10.30;;;10.00;99.90;;;;;;4983211;28;20134;-80
2020/12/17 03:05:41;;;;;;;15.45;11.18;;;10.00;99.90;;;;;;4979038;28;20126;-79
2020/12/17 03:08:08;;;;;;;12.50;9.23;;;10.00;99.90;;;;;;4977943;28;20193;-79
2020/12/17 03:10:34;;;;;;;14.48;10.25;;;10.00;99.90;;;;;;4982212;28;20054;-79
2020/12/17 03:13:01;;;;;;;13.27;10.00;;;10.00;99.90;;;;;;4980961;28;20051;-79
2020/12/17 03:15:29;;;;;;;13.02;9.77;;;9.90;99.90;;;;;;4980430;28;20145;-79
2020/12/17 03:17:56;;;;;;;13.95;9.82;;;10.00;99.90;;;;;;4981388;28;20086;-79
2020/12/17 03:20:22;;;;;;;12.88;9.77;;;9.80;99.90;;;;;;4980578;28;20075;-79
2020/12/17 03:22:49;;;;;;;13.50;9.18;;;9.70;99.90;;;;;;4978535;28;20055;-79
2020/12/17 03:25:15;;;;;;;14.70;9.48;;;9.70;99.90;;;;;;4979365;28;20050;-78
2020/12/17 03:27:42;;;;;;;13.48;10.25;;;9.70;99.90;;;;;;4979051;28;20163;-78
2020/12/17 03:30:08;;;;;;;15.73;10.25;;;9.70;99.90;;;;;;4978101;28;20138;-78
2020/12/17 03:32:35;;;;;;;11.85;9.57;;;9.70;99.90;;;;;;4976798;28;20133;-78
2020/12/17 03:35:02;;;;;;;14.73;10.48;;;9.70;99.90;;;;;;4976623;28;20134;-77
2020/12/17 03:37:29;;;;;;;14.27;9.98;;;9.70;99.90;;;;;;4977756;28;20082;-78
2020/12/17 03:39:55;;;;;;;13.73;9.57;;;9.70;99.90;;;;;;4979919;28;20133;-78
2020/12/17 03:42:22;;;;;;;15.40;10.45;;;9.80;99.90;;;;;;4981492;28;20121;-79
2020/12/17 03:44:49;;;;;;;15.88;9.73;;;9.80;99.90;;;;;;4980294;28;20526;-79
2020/12/17 03:47:15;;;;;;;13.23;9.73;;;9.80;99.90;;;;;;4979334;28;20129;-79
2020/12/17 03:49:41;;;;;;;12.70;9.82;;;9.80;99.90;;;;;;4980234;28;20090;-79
2020/12/17 03:52:10;;;;;;;14.98;9.75;;;9.70;99.90;;;;;;4979999;28;20085;-79
2020/12/17 03:54:37;;;;;;;14.00;9.80;;;9.60;99.90;;;;;;4979588;28;20083;-78
2020/12/17 03:57:03;;;;;;;15.10;9.77;;;9.60;99.90;;;;;;4976708;28;20567;-78
2020/12/17 03:59:30;;;;;;;15.18;10.40;;;9.60;99.90;;;;;;4977191;28;20502;-78
2020/12/17 04:01:56;;;;;;;13.48;9.63;;;9.60;99.90;;;;;;4980369;28;20123;-79
2020/12/17 04:04:22;;;;;;;13.27;10.02;;;9.50;99.90;;;;;;4981463;28;20094;-79
2020/12/17 04:06:49;;;;;;;14.50;10.55;;;9.50;99.90;;;;;;4980646;28;20153;-79
2020/12/17 04:09:16;;;;;;;13.43;10.02;;;9.50;99.90;;;;;;4980855;28;20050;-79
2020/12/17 04:11:45;;;;;;;15.40;10.40;;;9.60;99.90;;;;;;4981076;28;20106;-79
2020/12/17 04:14:11;;;;;;;18.00;11.63;;;9.50;99.90;;;;;;4979669;28;20129;-79
2020/12/17 04:16:38;;;;;;;15.82;10.45;;;9.50;99.90;;;;;;4977807;28;20194;-80
2020/12/17 04:19:04;;;;;;;15.15;10.68;;;9.50;99.90;;;;;;4978104;28;20129;-78
2020/12/17 04:21:30;;;;;;;13.48;10.88;;;9.50;99.90;;;;;;4976176;28;20463;-78
2020/12/17 04:23:57;;;;;;;13.57;10.70;;;9.60;99.90;;;;;;4977100;28;20494;-78
2020/12/17 04:26:24;;;;;;;17.48;11.80;;;9.50;99.90;;;;;;4975134;28;20062;-78
2020/12/17 04:28:50;;;;;;;16.70;12.10;;;9.60;99.90;;;;;;4976679;28;20129;-78
2020/12/17 04:31:17;;;;;;;14.73;11.30;;;9.60;99.90;;;;;;4977069;28;20163;-78
2020/12/17 04:33:43;;;;;;;21.65;11.77;;;9.60;99.90;;;;;;4976413;28;20138;-78
2020/12/17 04:36:10;;;;;;;17.70;11.77;;;9.60;99.90;;;;;;4971592;28;20129;-78
2020/12/17 04:38:36;;;;;;;19.45;12.90;;;9.60;99.90;;;;;;4976382;28;20133;-78
2020/12/17 04:41:05;;;;;;;16.98;11.65;;;9.60;99.90;;;;;;4974916;28;20133;-77
2020/12/17 04:43:32;;;;;;;19.25;12.15;;;9.60;99.90;;;;;;4976080;28;20106;-78
2020/12/17 04:45:59;;;;;;;16.25;12.15;;;9.60;99.90;;;;;;4976007;28;20162;-78
2020/12/17 04:48:26;;;;;;;15.45;12.27;;;9.60;99.90;;;;;;4975714;28;20086;-78
2020/12/17 04:50:53;;;;;;;19.63;13.85;;;9.60;99.90;;;;;;4992113;28;20046;-77
2020/12/17 04:53:20;;;;;;;16.60;12.70;;;9.60;99.90;;;;;;4996734;28;20109;-77
2020/12/17 04:55:48;;;;;;;15.98;12.27;;;9.60;99.90;;;;;;4994907;28;20133;-78
2020/12/17 04:58:20;;;;;;;20.00;13.55;;;9.70;99.90;;;;;;4994285;28;20177;-78
2020/12/17 05:00:54;;;;;;;17.75;13.35;;;9.60;99.90;;;;;;4992827;28;20462;-78
2020/12/17 05:03:22;;;;;;;19.17;13.50;;;9.60;99.90;;;;;;4992580;28;20569;-78
2020/12/17 05:05:51;;;;;;;18.58;12.95;;;9.60;99.90;;;;;;4993054;28;20050;-78
2020/12/17 05:08:20;;;;;;;16.85;12.85;;;9.60;99.90;;;;;;4993025;28;20050;-78
2020/12/17 05:10:47;;;;;;;18.65;12.65;;;9.60;99.90;;;;;;4989503;28;20132;-77
2020/12/17 05:13:15;;;;;;;15.63;12.43;;;9.70;99.90;;;;;;4973021;28;20141;-77
2020/12/17 05:15:42;;;;;;;15.60;11.88;;;9.70;99.90;;;;;;4972882;28;20131;-78
2020/12/17 05:18:09;;;;;;;15.70;11.95;;;9.70;99.90;;;;;;4974013;28;20085;-78
2020/12/17 05:20:37;;;;;;;14.00;11.35;;;9.80;99.90;;;;;;4969033;28;20132;-77
2020/12/17 05:23:04;;;;;;;16.67;11.88;;;9.90;99.90;;;;;;4972892;28;20110;-77
2020/12/17 05:25:31;;;;;;;16.08;12.15;;;9.90;99.90;;;;;;4973168;28;20051;-78
2020/12/17 05:28:00;;;;;;;19.65;13.27;;;9.90;99.90;;;;;;4972445;28;20109;-78
2020/12/17 05:30:33;;;;;;;18.40;12.85;;;9.90;99.90;;;;;;4972171;28;20116;-78
2020/12/17 05:33:00;;;;;;;20.58;12.10;;;10.00;99.90;;;;;;4972233;28;20178;-78
2020/12/17 05:35:36;;;;;;;17.80;11.88;;;10.00;99.90;;;;;;4972625;28;20159;-78
2020/12/17 05:38:03;;;;;;;18.23;12.38;;;10.00;99.90;;;;;;4973796;28;20055;-77
2020/12/17 05:40:35;;;;;;;20.98;13.25;;;10.00;99.90;;;;;;4974745;28;20145;-77
2020/12/17 05:43:02;;;;;;;20.73;14.18;;;10.10;99.90;;;;;;4973577;28;20133;-77
2020/12/17 05:45:30;;;;;;;20.55;12.80;;;10.10;99.90;;;;;;4972382;28;20182;-77
2020/12/17 05:48:10;;;;;;;30.85;19.23;;;10.20;99.90;;;;;;4972532;28;20079;-77
2020/12/17 05:50:48;;;;;;;22.15;14.60;;;10.20;99.90;;;;;;4972138;28;20139;-77
2020/12/17 05:53:15;;;;;;;24.55;13.85;;;10.20;99.90;;;;;;4972979;28;20129;-78
2020/12/17 05:55:42;;;;;;;17.95;13.65;;;10.30;99.90;;;;;;4974315;28;20047;-78
2020/12/17 05:58:09;;;;;;;25.20;15.80;;;10.30;99.90;;;;;;4974766;28;20137;-79
2020/12/17 06:00:57;;;;;;;21.65;15.27;;;10.30;99.90;;;;;;5006528;23;20521;-77
2020/12/17 06:03:40;;;;;;;15.63;12.35;;;10.40;99.90;;;;;;4984818;28;20508;-77
2020/12/17 06:06:12;;;;;;;25.73;15.70;;;10.40;99.90;;;;;;4992040;28;20092;-77
2020/12/17 06:08:42;;;;;;;18.97;12.70;;;10.40;99.90;;;;;;4991147;28;20054;-77
2020/12/17 06:11:12;;;;;;;15.20;12.27;;;10.40;99.90;;;;;;4990658;28;20635;-77
2020/12/17 06:13:42;;;;;;;14.75;11.48;;;10.40;99.90;;;;;;4992225;28;20085;-76
2020/12/17 06:16:10;;;;;;;16.48;11.68;;;10.50;99.90;;;;;;4995256;28;20109;-77
2020/12/17 06:18:39;;;;;;;15.63;10.85;;;10.50;99.90;;;;;;4995812;28;20097;-76
2020/12/17 06:21:12;;;;;;;15.25;10.38;;;10.50;99.90;;;;;;4994378;28;20124;-74
2020/12/17 06:23:39;;;;;;;16.23;10.68;;;10.50;99.90;;;;;;4995395;28;20511;-76
2020/12/17 06:26:09;;;;;;;13.93;9.93;;;10.50;99.90;;;;;;4995148;28;20133;-77
2020/12/17 06:28:45;;;;;;;15.15;10.45;;;10.50;99.90;;;;;;4994872;28;20050;-76
2020/12/17 06:31:15;;;;;;;15.65;10.82;;;10.60;99.90;;;;;;4993831;28;20499;-76
2020/12/17 06:33:42;;;;;;;13.60;11.18;;;10.60;99.90;;;;;;4995452;28;20538;-77
2020/12/17 06:36:26;;;;;;;15.63;12.13;;;10.60;99.90;;;;;;4994851;28;20137;-76
2020/12/17 06:38:53;;;;;;;17.48;12.02;;;10.60;99.90;;;;;;4994549;28;20456;-77
2020/12/17 06:41:22;;;;;;;22.13;15.80;;;10.60;99.90;;;;;;4994181;28;20193;-77
2020/12/17 06:43:49;;;;;;;20.17;15.45;;;10.60;99.90;;;;;;4995027;28;20051;-76
2020/12/17 06:46:36;;;;;;;17.25;13.32;;;10.60;99.90;;;;;;4994576;28;20134;-77
2020/12/17 06:49:06;;;;;;;18.25;12.82;;;10.60;99.90;;;;;;4994540;28;20193;-78
2020/12/17 06:51:36;;;;;;;21.17;12.07;;;10.60;99.90;;;;;;4994154;28;20136;-79
2020/12/17 06:54:04;;;;;;;14.93;10.88;;;10.50;99.90;;;;;;4993683;28;20145;-79
2020/12/17 06:56:31;;;;;;;14.40;11.23;;;10.50;99.90;;;;;;4993278;28;20125;-78
2020/12/17 06:59:14;;;;;;;15.18;10.18;;;10.50;99.90;;;;;;4994751;28;20137;-78
2020/12/17 07:01:42;;;;;;;17.60;11.13;;;10.50;99.90;;;;;;4995390;28;20050;-79
2020/12/17 07:04:08;;;;;;;14.50;11.48;;;10.50;99.90;;;;;;4995057;28;20050;-78
2020/12/17 07:06:36;;;;;;;13.05;10.65;;;10.50;99.90;;;;;;4995152;28;20550;-78
2020/12/17 07:09:03;;;;;;;15.27;12.75;;;10.50;99.90;;;;;;4995160;28;20138;-78
2020/12/17 07:11:53;;;;;;;14.40;11.07;;;10.50;99.90;;;;;;4994729;28;20137;-80
2020/12/17 07:14:33;;;;;;;14.13;12.18;;;10.40;99.90;;;;;;4994478;28;20100;-78
2020/12/17 07:17:03;;;;;;;15.52;13.00;;;10.50;99.90;;;;;;4995226;28;20054;-78
2020/12/17 07:19:30;;;;;;;21.25;16.40;;;10.50;99.90;;;;;;4994495;28;20093;-78
2020/12/17 07:22:03;;;;;;;19.25;13.10;;;10.50;99.90;;;;;;4994979;28;20131;-78
2020/12/17 07:24:32;;;;;;;13.10;11.43;;;10.50;99.90;;;;;;4995344;28;20082;-78
2020/12/17 07:27:01;;;;;;;16.48;12.45;;;10.50;99.90;;;;;;4994047;28;20054;-77
2020/12/17 07:29:58;;;;;;;13.98;12.20;;;10.50;99.90;;;;;;4997124;28;20587;-78
2020/12/17 07:32:30;;;;;;;16.48;11.18;;;10.40;99.90;;;;;;4989599;28;20065;-79
2020/12/17 07:34:58;;;;;;;14.82;9.82;;;10.40;99.90;;;;;;4995429;28;20502;-78
2020/12/17 07:37:40;;;;;;;16.73;10.52;;;10.40;99.90;;;;;;4994700;28;20137;-80
2020/12/17 07:40:17;;;;;;;13.02;10.38;;;10.40;99.90;;;;;;4994876;28;20583;-78
2020/12/17 07:43:05;;;;;;;15.45;10.07;;;10.30;99.90;;;;;;4994679;28;20094;-78
2020/12/17 07:45:50;;;;;;;14.18;9.23;;;10.30;99.90;;;;;;4994613;28;20046;-78
2020/12/17 07:48:40;;;;;;;11.40;8.23;;;10.30;99.90;;;;;;4994100;28;20141;-79
2020/12/17 07:51:08;;;;;;;12.30;7.07;;;10.30;99.90;;;;;;4993276;28;20157;-76
2020/12/17 07:53:37;;;;;;;10.70;6.60;;;10.30;99.90;;;;;;4994137;28;20070;-76
2020/12/17 07:56:06;;;;;;;9.05;6.40;;;10.30;99.90;;;;;;4993673;28;20050;-76
2020/12/17 07:58:32;;;;;;;7.30;6.00;;;10.30;99.90;;;;;;4994006;28;20050;-77
2020/12/17 08:00:59;;;;;;;10.70;5.20;;;10.30;99.90;;;;;;4993635;28;20092;-77
2020/12/17 08:03:27;;;;;;;6.70;4.95;;;10.30;99.90;;;;;;4993792;28;20050;-74
2020/12/17 08:06:04;;;;;;;9.05;5.13;;;10.30;99.90;;;;;;4993427;28;20088;-77
2020/12/17 08:08:30;;;;;;;6.68;4.50;;;10.30;99.90;;;;;;4993769;28;20137;-74
2020/12/17 08:10:58;;;;;;;8.43;5.00;;;10.20;99.90;;;;;;4993820;28;20177;-77
2020/12/17 08:13:25;;;;;;;5.35;4.30;;;10.30;99.90;;;;;;4993717;28;20481;-77
2020/12/17 08:15:52;;;;;;;7.90;4.50;;;10.30;99.90;;;;;;4993448;28;20594;-78
2020/12/17 08:18:22;;;;;;;9.45;4.35;;;10.30;99.90;;;;;;4993762;28;20137;-76
2020/12/17 08:20:59;;;;;;;6.47;5.05;;;10.40;99.90;;;;;;4993496;28;20133;-77
2020/12/17 08:23:27;;;;;;;5.80;4.43;;;10.30;99.90;;;;;;4994743;28;20139;-77
2020/12/17 08:25:55;;;;;;;7.40;4.32;;;10.30;99.90;;;;;;4994160;28;20050;-78
2020/12/17 08:28:23;;;;;;;10.10;6.65;;;10.40;99.90;;;;;;4993890;28;20046;-77
2020/12/17 08:30:49;;;;;;;7.00;4.70;;;10.40;99.90;;;;;;4993263;28;20149;-77
2020/12/17 08:33:16;;;;;;;5.95;5.05;;;10.30;99.90;;;;;;4992988;28;20137;-78
2020/12/17 08:35:42;;;;;;;4.95;3.95;;;10.30;99.90;;;;;;4992871;28;20399;-80
2020/12/17 08:38:08;;;;;;;6.40;4.88;;;10.30;99.90;;;;;;4992913;28;20050;-79
2020/12/17 08:40:37;;;;;;;9.55;7.07;;;10.30;99.90;;;;;;4992917;28;20134;-78
2020/12/17 08:43:10;;;;;;;7.65;4.55;;;10.20;99.90;;;;;;4992700;28;20061;-78
2020/12/17 08:45:40;;;;;;;7.03;4.10;;;10.20;99.90;;;;;;4992995;28;20521;-77
2020/12/17 08:48:11;;;;;;;7.47;4.95;;;10.20;99.90;;;;;;4992662;28;20085;-78
2020/12/17 08:50:39;;;;;;;5.30;3.97;;;10.20;99.90;;;;;;4992969;28;20081;-78
2020/12/17 08:53:18;;;;;;;7.95;4.20;;;10.20;99.90;;;;;;4992019;28;20157;-77
2020/12/17 08:55:45;;;;;;;5.13;4.20;;;10.20;99.90;;;;;;4992458;28;20137;-77
2020/12/17 08:58:11;;;;;;;4.50;3.60;;;10.20;99.90;;;;;;4992476;28;20138;-76
2020/12/17 09:00:39;;;;;;;5.13;3.42;;;10.20;99.90;;;;;;4992201;28;20137;-77
2020/12/17 09:03:05;;;;;;;5.53;3.90;;;10.20;99.90;;;;;;4992519;28;20068;-74
2020/12/17 09:05:32;;;;;;;5.45;4.00;;;10.20;99.90;;;;;;4993034;28;20192;-77
2020/12/17 09:07:59;;;;;;;5.57;3.60;;;10.10;99.90;;;;;;4992162;28;20136;-76
2020/12/17 09:10:26;;;;;;;5.43;3.40;;;10.10;99.90;;;;;;4992359;28;20046;-77
2020/12/17 09:12:56;;;;;;;5.60;4.07;;;10.10;99.90;;;;;;4991424;28;20149;-77
2020/12/17 09:15:22;;;;;;;6.07;3.90;;;10.00;99.90;;;;;;4991270;28;20125;-77
2020/12/17 09:17:49;;;;;;;4.72;3.88;;;10.00;99.90;;;;;;4991479;28;20451;-77
2020/12/17 09:20:17;;;;;;;6.32;3.55;;;10.00;99.90;;;;;;4992099;28;20128;-77
2020/12/17 09:22:45;;;;;;;4.03;2.90;;;10.10;99.90;;;;;;4991663;28;20411;-78
2020/12/17 09:25:12;;;;;;;4.65;3.20;;;10.10;99.90;;;;;;4994577;28;20042;-80
2020/12/17 09:27:40;;;;;;;4.93;3.30;;;10.20;99.90;;;;;;4994783;28;20501;-78
2020/12/17 09:30:09;;;;;;;4.13;2.38;;;10.20;99.90;;;;;;4993108;28;20057;-79
2020/12/17 09:32:37;;;;;;;3.60;2.45;;;10.30;99.90;;;;;;4996261;28;20042;-83
2020/12/17 09:35:13;;;;;;;8.10;4.20;;;10.40;99.90;;;;;;4997322;28;20046;-79
2020/12/17 09:37:55;;;;;;;4.88;3.47;;;10.30;99.90;;;;;;4996338;28;20189;-79
2020/12/17 09:40:23;;;;;;;5.63;3.63;;;10.40;99.90;;;;;;4993514;28;20115;-77
2020/12/17 09:43:01;;;;;;;5.10;3.08;;;10.50;99.90;;;;;;4990681;28;20046;-78
2020/12/17 09:45:32;;;;;;;3.65;2.85;;;10.60;99.90;;;;;;4988720;28;20129;-77
2020/12/17 09:47:58;;;;;;;7.30;4.18;;;10.70;99.90;;;;;;4991568;28;20466;-79
2020/12/17 09:50:26;;;;;;;5.68;2.85;;;10.70;99.90;;;;;;4992489;28;20582;-80
2020/12/17 09:52:52;;;;;;;4.97;3.53;;;10.70;99.90;;;;;;4994711;28;20125;-78
2020/12/17 09:55:18;;;;;;;6.53;4.60;;;10.80;99.90;;;;;;4995374;28;20129;-78
2020/12/17 09:57:47;;;;;;;3.20;2.70;;;10.80;99.90;;;;;;4992753;28;20078;-77
2020/12/17 10:00:14;;;;;;;6.07;4.30;;;10.80;99.90;;;;;;4995267;28;20082;-79
2020/12/17 10:02:42;;;;;;;6.50;2.85;;;10.80;99.90;;;;;;4995449;28;20046;-78
2020/12/17 10:05:11;;;;;;;7.03;3.78;;;10.80;99.90;;;;;;4995532;28;20096;-78
2020/12/17 10:07:38;;;;;;;3.38;2.25;;;10.90;99.90;;;;;;4993440;28;20054;-79
2020/12/17 10:10:05;;;;;;;3.45;2.42;;;11.00;99.90;;;;;;4992966;28;20133;-79
2020/12/17 10:12:31;;;;;;;5.03;3.35;;;11.00;99.90;;;;;;4994127;28;20136;-80
2020/12/17 10:14:58;;;;;;;5.68;3.42;;;11.00;99.90;;;;;;4993554;28;20114;-79
2020/12/17 10:17:24;;;;;;;3.28;2.58;;;11.10;99.90;;;;;;4997143;28;20134;-77
2020/12/17 10:19:50;;;;;;;4.43;2.20;;;11.10;99.90;;;;;;4991447;28;20137;-79
2020/12/17 10:22:17;;;;;;;4.22;2.38;;;11.20;99.90;;;;;;4995480;28;20133;-79
2020/12/17 10:24:44;;;;;;;4.80;2.35;;;11.30;99.90;;;;;;4996177;28;20476;-79
2020/12/17 10:27:10;;;;;;;2.92;2.38;;;11.30;99.90;;;;;;4996722;28;20092;-78
2020/12/17 10:29:37;;;;;;;3.63;2.78;;;11.30;99.90;;;;;;4996612;28;20086;-79
2020/12/17 10:32:03;;;;;;;3.88;2.60;;;11.30;99.90;;;;;;4996287;28;20491;-79
2020/12/17 10:34:30;;;;;;;4.80;2.08;;;11.20;99.90;;;;;;4995893;28;20480;-78
2020/12/17 10:36:56;;;;;;;5.60;2.80;;;11.20;99.90;;;;;;4995766;28;20134;-79
2020/12/17 10:39:22;;;;;;;5.35;2.75;;;11.20;99.90;;;;;;4994952;28;20042;-79
2020/12/17 10:41:50;;;;;;;3.55;2.10;;;11.20;99.90;;;;;;4994426;28;20141;-79
2020/12/17 10:44:16;;;;;;;5.32;2.38;;;11.20;99.90;;;;;;4996844;28;20129;-79
2020/12/17 10:46:43;;;;;;;6.75;2.75;;;11.20;99.90;;;;;;4995199;28;20130;-74
2020/12/17 10:49:10;;;;;;;5.63;3.30;;;11.20;99.90;;;;;;4995044;28;20093;-78
2020/12/17 10:51:36;;;;;;;5.78;2.83;;;11.20;99.90;;;;;;4994740;28;20054;-78
2020/12/17 10:54:03;;;;;;;7.07;2.63;;;11.20;99.90;;;;;;4995743;28;20054;-78
2020/12/17 10:56:29;;;;;;;5.57;2.50;;;11.20;99.90;;;;;;4996232;28;20102;-79
2020/12/17 10:58:56;;;;;;;4.68;2.45;;;11.30;99.90;;;;;;4995854;28;20149;-78
2020/12/17 11:01:23;;;;;;;5.95;2.58;;;11.30;99.90;;;;;;4995060;28;20435;-77
2020/12/17 11:03:52;;;;;;;3.88;2.65;;;11.30;99.90;;;;;;4996060;28;20149;-79
2020/12/17 11:06:19;;;;;;;5.75;3.20;;;11.30;99.90;;;;;;4996935;28;20125;-79
2020/12/17 11:08:45;;;;;;;4.80;2.60;;;11.40;99.90;;;;;;4995668;28;20137;-79
2020/12/17 11:11:12;;;;;;;4.88;2.65;;;11.50;99.90;;;;;;4995130;28;20101;-79
2020/12/17 11:13:38;;;;;;;4.80;2.60;;;11.60;99.90;;;;;;4996166;28;20459;-78
2020/12/17 11:16:06;;;;;;;5.82;3.20;;;11.70;99.90;;;;;;4994158;28;20129;-78
2020/12/17 11:18:32;;;;;;;4.38;2.78;;;11.70;99.90;;;;;;4995388;28;20133;-78
2020/12/17 11:20:59;;;;;;;5.47;2.75;;;11.70;99.90;;;;;;4994496;28;20606;-75
2020/12/17 11:23:25;;;;;;;4.78;2.88;;;11.80;99.90;;;;;;4993996;28;20525;-79
2020/12/17 11:25:52;;;;;;;5.43;2.85;;;11.90;99.90;;;;;;4995421;28;20411;-78
2020/12/17 11:28:18;;;;;;;3.40;2.70;;;11.90;99.90;;;;;;4995261;28;20150;-78
2020/12/17 11:30:44;;;;;;;5.15;3.10;;;11.90;99.90;;;;;;4995199;28;20186;-81
2020/12/17 11:33:12;;;;;;;4.03;3.00;;;11.90;99.90;;;;;;4994929;28;20138;-77
2020/12/17 11:35:38;;;;;;;4.50;3.05;;;12.00;99.90;;;;;;4995282;28;20528;-78
2020/12/17 11:38:05;;;;;;;5.38;2.95;;;11.90;99.90;;;;;;4996221;28;20129;-77
2020/12/17 11:40:31;;;;;;;4.70;2.85;;;11.90;99.90;;;;;;4996697;28;20129;-81
2020/12/17 11:42:57;;;;;;;6.72;3.03;;;11.80;99.90;;;;;;4996406;28;20556;-79
2020/12/17 11:45:25;;;;;;;4.63;2.85;;;11.80;99.90;;;;;;4995446;28;20088;-75
2020/12/17 11:47:52;;;;;;;8.98;3.13;;;11.70;99.90;;;;;;4995751;28;20105;-77
2020/12/17 11:50:19;;;;;;;6.43;2.92;;;11.60;99.90;;;;;;4994445;28;20507;-77
2020/12/17 11:52:46;;;;;;;4.78;2.72;;;11.50;99.90;;;;;;4994296;28;20137;-78
2020/12/17 11:55:12;;;;;;;4.45;2.75;;;11.50;99.90;;;;;;4997674;28;20130;-80
2020/12/17 11:57:38;;;;;;;4.97;3.30;;;11.50;99.90;;;;;;4997193;28;20137;-80
2020/12/17 12:00:08;;;;;;;7.50;3.67;;;11.50;99.90;;;;;;5013188;23;20089;-80
2020/12/17 12:02:35;;;;;;;8.05;3.10;;;11.60;99.90;;;;;;5001246;28;20073;-81
2020/12/17 12:05:03;;;;;;;6.55;3.22;;;11.60;99.90;;;;;;5002112;28;20057;-82
2020/12/17 12:07:30;;;;;;;5.07;3.08;;;11.70;99.90;;;;;;5000667;28;20430;-81
2020/12/17 12:09:56;;;;;;;5.45;3.10;;;11.80;99.90;;;;;;4999822;28;20122;-79
2020/12/17 12:12:23;;;;;;;6.65;3.03;;;11.80;99.90;;;;;;4999894;28;20078;-80
2020/12/17 12:14:49;;;;;;;7.95;3.60;;;11.90;99.90;;;;;;5001259;28;20046;-80
2020/12/17 12:17:16;;;;;;;5.60;3.10;;;11.90;99.90;;;;;;5000187;28;20201;-80
2020/12/17 12:19:43;;;;;;;5.45;2.90;;;11.90;99.90;;;;;;5001639;28;20073;-80
2020/12/17 12:22:10;;;;;;;4.68;2.85;;;11.80;99.90;;;;;;4999336;28;20113;-79
2020/12/17 12:24:37;;;;;;;4.82;2.95;;;11.90;99.90;;;;;;5000615;28;20141;-80
2020/12/17 12:27:04;;;;;;;5.78;3.08;;;11.80;99.90;;;;;;5000172;28;20437;-80
2020/12/17 12:29:30;;;;;;;6.72;3.20;;;11.90;99.90;;;;;;5003661;28;20057;-80
2020/12/17 12:31:57;;;;;;;8.00;3.35;;;11.90;99.90;;;;;;5001271;28;20050;-80
2020/12/17 12:34:25;;;;;;;6.63;3.00;;;11.80;99.90;;;;;;5001582;28;20157;-80
2020/12/17 12:36:52;;;;;;;5.70;3.15;;;11.80;99.90;;;;;;4997076;28;20422;-79
2020/12/17 12:39:19;;;;;;;7.05;3.35;;;11.80;99.90;;;;;;4996024;28;20054;-79
2020/12/17 12:41:46;;;;;;;8.50;3.90;;;11.80;99.90;;;;;;4996539;28;20130;-79
2020/12/17 12:44:13;;;;;;;5.35;3.20;;;11.80;99.90;;;;;;4997411;28;20050;-79